Time;durP1;ratioP1;P1;durP2;ratioP2;P2;SDS_P1;SDS_P2;PMS_P1;PMS_P2;Temp;Humidity;BMP_temperature;BMP_pressure;BME280_temperature;BME280_humidity;BME280_pressure;Samples;Min_cycle;Max_cycle;Signal;HPM_P1;HPM_P2
2023/12/20 00:01:40;;;;;;;29.63;15.73;;;8.20;99.90;;;;;;5044754;28;20017;-64
2023/12/20 00:04:06;;;;;;;37.33;17.17;;;8.20;99.90;;;;;;5042634;28;20442;-65
2023/12/20 00:06:31;;;;;;;32.28;15.63;;;8.20;99.90;;;;;;5049419;28;20028;-65
2023/12/20 00:09:00;;;;;;;30.70;16.40;;;8.20;99.90;;;;;;5043784;28;20029;-63
2023/12/20 00:11:25;;;;;;;31.75;16.00;;;8.20;99.90;;;;;;5044359;28;20029;-65
2023/12/20 00:13:51;;;;;;;36.70;16.92;;;8.20;99.90;;;;;;5042390;28;20033;-66
2023/12/20 00:16:17;;;;;;;33.03;16.63;;;8.30;99.90;;;;;;5055198;28;20414;-65
2023/12/20 00:18:42;;;;;;;33.22;16.15;;;8.30;99.90;;;;;;5041961;28;20078;-65
2023/12/20 00:21:08;;;;;;;31.05;15.85;;;8.30;99.90;;;;;;5049239;28;20021;-65
2023/12/20 00:23:33;;;;;;;36.35;16.40;;;8.20;99.90;;;;;;5045086;28;20403;-65
2023/12/20 00:25:59;;;;;;;35.92;16.55;;;8.30;99.90;;;;;;5047556;28;20155;-63
2023/12/20 00:28:25;;;;;;;37.60;16.90;;;8.30;99.90;;;;;;5046631;28;20049;-64
2023/12/20 00:30:51;;;;;;;32.50;16.55;;;8.30;99.90;;;;;;5050021;28;20479;-65
2023/12/20 00:33:16;;;;;;;32.20;16.02;;;8.30;99.90;;;;;;5044450;28;20025;-65
2023/12/20 00:35:42;;;;;;;30.80;15.55;;;8.30;99.90;;;;;;5047738;28;20021;-64
2023/12/20 00:38:09;;;;;;;32.47;14.80;;;8.30;99.90;;;;;;5044710;28;20036;-64
2023/12/20 00:40:34;;;;;;;37.60;15.35;;;8.40;99.90;;;;;;5048622;28;20032;-66
2023/12/20 00:43:00;;;;;;;26.50;13.80;;;8.30;99.90;;;;;;5043348;28;20040;-65
2023/12/20 00:45:26;;;;;;;25.38;13.77;;;8.30;99.90;;;;;;5046785;28;20422;-65
2023/12/20 00:47:51;;;;;;;26.48;13.77;;;8.30;99.90;;;;;;5046575;28;20025;-65
2023/12/20 00:50:17;;;;;;;20.98;12.40;;;8.30;99.90;;;;;;5051979;28;20029;-65
2023/12/20 00:52:42;;;;;;;29.25;12.45;;;8.30;99.90;;;;;;5042449;28;20490;-64
2023/12/20 00:55:08;;;;;;;25.38;12.80;;;8.20;99.90;;;;;;5045959;28;20487;-63
2023/12/20 00:57:34;;;;;;;26.63;12.00;;;8.30;99.90;;;;;;5044891;28;20314;-65
2023/12/20 00:59:59;;;;;;;25.48;12.85;;;8.30;99.90;;;;;;5049718;28;20048;-65
2023/12/20 01:02:25;;;;;;;26.73;13.00;;;8.20;99.90;;;;;;5047859;28;20474;-65
2023/12/20 01:04:50;;;;;;;23.67;12.35;;;8.20;99.90;;;;;;5044419;28;20037;-66
2023/12/20 01:07:16;;;;;;;23.95;12.30;;;8.20;99.90;;;;;;5047207;28;20090;-66
2023/12/20 01:09:41;;;;;;;28.25;13.65;;;8.10;99.90;;;;;;5048402;28;20083;-65
2023/12/20 01:12:07;;;;;;;31.23;11.93;;;8.10;99.90;;;;;;5042987;28;20031;-64
2023/12/20 01:14:32;;;;;;;28.63;12.82;;;8.10;99.90;;;;;;5043475;28;20057;-64
2023/12/20 01:16:58;;;;;;;27.25;12.57;;;8.10;99.90;;;;;;5050337;28;20032;-65
2023/12/20 01:19:24;;;;;;;24.50;12.45;;;8.10;99.90;;;;;;5044361;28;20064;-65
2023/12/20 01:21:50;;;;;;;31.92;15.00;;;8.00;99.90;;;;;;5050018;28;20025;-65
2023/12/20 01:24:15;;;;;;;40.00;20.35;;;8.00;99.90;;;;;;5048762;28;20021;-66
2023/12/20 01:26:41;;;;;;;52.38;25.38;;;8.00;99.90;;;;;;5050663;28;20037;-66
2023/12/20 01:29:06;;;;;;;43.42;21.95;;;7.90;99.90;;;;;;5045205;28;20037;-66
2023/12/20 01:31:32;;;;;;;38.80;18.15;;;7.90;99.90;;;;;;5049379;28;20029;-66
2023/12/20 01:33:57;;;;;;;53.75;21.17;;;7.90;99.90;;;;;;5045485;28;20036;-66
2023/12/20 01:36:23;;;;;;;51.72;23.38;;;7.90;99.90;;;;;;5050675;28;20016;-66
2023/12/20 01:38:49;;;;;;;50.60;23.45;;;7.90;99.90;;;;;;5047490;28;20654;-66
2023/12/20 01:41:15;;;;;;;50.33;21.60;;;7.90;99.90;;;;;;5050711;28;20113;-65
2023/12/20 01:43:40;;;;;;;49.22;21.52;;;7.90;99.90;;;;;;5049008;28;20103;-65
2023/12/20 01:46:06;;;;;;;59.92;25.38;;;7.90;99.90;;;;;;5050737;28;20025;-64
2023/12/20 01:48:32;;;;;;;62.60;27.13;;;7.90;99.90;;;;;;5043157;28;20114;-64
2023/12/20 01:50:59;;;;;;;56.47;24.80;;;7.80;99.90;;;;;;5040299;28;20032;-65
2023/12/20 01:53:25;;;;;;;53.65;23.73;;;7.80;99.90;;;;;;5049015;28;20029;-65
2023/12/20 01:55:54;;;;;;;45.70;20.83;;;7.70;99.90;;;;;;5051505;28;20037;-65
2023/12/20 01:58:19;;;;;;;47.10;19.90;;;7.70;99.90;;;;;;5041108;28;20102;-65
2023/12/20 02:00:45;;;;;;;29.05;14.20;;;7.60;99.90;;;;;;5045984;28;20083;-65
2023/12/20 02:03:11;;;;;;;29.67;13.88;;;7.50;99.90;;;;;;5041903;28;20029;-66
2023/12/20 02:05:38;;;;;;;27.08;12.13;;;7.50;99.90;;;;;;5051494;28;20414;-66
2023/12/20 02:08:05;;;;;;;18.75;10.23;;;7.40;99.90;;;;;;5044959;28;20464;-64
2023/12/20 02:10:31;;;;;;;25.75;9.63;;;7.40;99.90;;;;;;5055716;28;20115;-66
2023/12/20 02:12:57;;;;;;;20.92;8.50;;;7.30;99.90;;;;;;5044580;28;20108;-65
2023/12/20 02:15:22;;;;;;;18.05;8.15;;;7.30;99.90;;;;;;5044376;28;20029;-64
2023/12/20 02:17:48;;;;;;;24.92;8.35;;;7.20;99.90;;;;;;5051039;28;20032;-64
2023/12/20 02:20:14;;;;;;;24.80;8.52;;;7.10;99.90;;;;;;5042504;28;20505;-66
2023/12/20 02:22:40;;;;;;;24.98;8.13;;;7.10;99.90;;;;;;5042038;28;20013;-66
2023/12/20 02:25:05;;;;;;;26.80;7.60;;;7.10;99.90;;;;;;5049750;28;20470;-65
2023/12/20 02:27:31;;;;;;;27.20;6.47;;;7.00;99.90;;;;;;5043541;28;20033;-65
2023/12/20 02:29:57;;;;;;;24.83;5.28;;;6.90;99.90;;;;;;5050081;28;20036;-64
2023/12/20 02:32:26;;;;;;;38.17;5.65;;;6.90;99.90;;;;;;5050916;28;20032;-65
2023/12/20 02:34:51;;;;;;;16.17;4.88;;;6.90;99.90;;;;;;5052759;28;20026;-65
2023/12/20 02:37:17;;;;;;;26.45;5.07;;;6.90;99.90;;;;;;5048215;28;20017;-65
2023/12/20 02:39:42;;;;;;;18.58;4.38;;;6.90;99.90;;;;;;5048606;28;20032;-65
2023/12/20 02:42:08;;;;;;;21.58;4.85;;;6.80;99.90;;;;;;5048123;28;20013;-65
2023/12/20 02:44:33;;;;;;;22.55;5.35;;;6.80;99.90;;;;;;5044092;28;20039;-65
2023/12/20 02:46:59;;;;;;;19.30;5.07;;;6.80;99.90;;;;;;5045226;28;20013;-66
2023/12/20 02:49:24;;;;;;;25.50;4.88;;;6.80;99.90;;;;;;5052810;28;20062;-65
2023/12/20 02:51:50;;;;;;;16.45;5.22;;;6.70;99.90;;;;;;5051033;28;20067;-66
2023/12/20 02:54:16;;;;;;;22.63;4.22;;;6.70;99.90;;;;;;5050580;28;20052;-66
2023/12/20 02:56:41;;;;;;;18.63;4.10;;;6.60;99.90;;;;;;5045512;28;20071;-65
2023/12/20 02:59:08;;;;;;;15.90;4.30;;;6.70;99.90;;;;;;5050084;28;20029;-65
2023/12/20 03:01:34;;;;;;;25.20;3.83;;;6.60;99.90;;;;;;5051002;28;20047;-66
2023/12/20 03:04:00;;;;;;;32.17;4.90;;;6.60;99.90;;;;;;5045431;28;20482;-65
2023/12/20 03:06:25;;;;;;;17.23;3.50;;;6.70;99.90;;;;;;5041983;28;20021;-64
2023/12/20 03:08:51;;;;;;;16.83;3.05;;;6.60;99.90;;;;;;5048304;28;20796;-65
2023/12/20 03:11:16;;;;;;;16.52;3.65;;;6.60;99.90;;;;;;5047349;28;20032;-66
2023/12/20 03:13:42;;;;;;;21.55;2.85;;;6.60;99.90;;;;;;5049031;28;20029;-64
2023/12/20 03:16:11;;;;;;;18.35;2.90;;;6.60;99.90;;;;;;5052554;28;20025;-65
2023/12/20 03:18:37;;;;;;;24.40;3.80;;;6.60;99.90;;;;;;5045560;28;20641;-65
2023/12/20 03:21:04;;;;;;;19.83;3.50;;;6.70;99.90;;;;;;5053311;28;20033;-64
2023/12/20 03:23:30;;;;;;;10.38;2.75;;;6.70;99.90;;;;;;5051311;28;20020;-66
2023/12/20 03:25:56;;;;;;;30.55;3.72;;;6.70;99.90;;;;;;5045087;28;20033;-66
2023/12/20 03:28:22;;;;;;;28.65;4.07;;;6.70;99.90;;;;;;5047949;28;20509;-63
2023/12/20 03:30:48;;;;;;;24.05;4.30;;;6.70;99.90;;;;;;5054778;28;20040;-65
2023/12/20 03:33:14;;;;;;;28.38;5.75;;;6.80;99.90;;;;;;5054123;28;20037;-65
2023/12/20 03:35:39;;;;;;;33.08;4.45;;;6.80;99.90;;;;;;5053680;28;20604;-65
2023/12/20 03:38:05;;;;;;;24.73;4.05;;;6.80;99.90;;;;;;5054713;28;20105;-65
2023/12/20 03:40:30;;;;;;;34.00;5.55;;;6.80;99.90;;;;;;5049121;28;20071;-66
2023/12/20 03:42:56;;;;;;;18.77;3.92;;;6.80;99.90;;;;;;5049466;28;20047;-64
2023/12/20 03:45:21;;;;;;;28.25;4.22;;;6.80;99.90;;;;;;5051969;28;20430;-63
2023/12/20 03:47:47;;;;;;;24.23;3.88;;;6.90;99.90;;;;;;5053347;28;20017;-65
2023/12/20 03:50:13;;;;;;;32.13;6.00;;;6.90;99.90;;;;;;5058238;28;20422;-66
2023/12/20 03:52:38;;;;;;;19.30;4.85;;;6.90;99.90;;;;;;5047595;28;20026;-65
2023/12/20 03:55:04;;;;;;;26.33;4.13;;;6.90;99.90;;;;;;5051269;28;20036;-66
2023/12/20 03:57:30;;;;;;;27.75;4.72;;;6.90;99.90;;;;;;5050476;28;20025;-67
2023/12/20 03:59:55;;;;;;;19.23;4.00;;;6.80;99.90;;;;;;5049300;28;20404;-66
2023/12/20 04:02:21;;;;;;;18.98;3.50;;;6.90;99.90;;;;;;5047756;28;20040;-66
2023/12/20 04:04:46;;;;;;;22.73;5.40;;;6.90;99.90;;;;;;5050401;28;20479;-65
2023/12/20 04:07:12;;;;;;;25.38;4.60;;;6.90;99.90;;;;;;5055118;28;20033;-66
2023/12/20 04:09:37;;;;;;;15.02;3.85;;;6.90;99.90;;;;;;5054569;28;20048;-65
2023/12/20 04:12:04;;;;;;;21.23;4.43;;;6.90;99.90;;;;;;5047419;28;20036;-65
2023/12/20 04:14:30;;;;;;;19.67;4.55;;;6.90;99.90;;;;;;5050241;28;20021;-66
2023/12/20 04:16:55;;;;;;;26.80;3.97;;;6.90;99.90;;;;;;5047228;28;20690;-65
2023/12/20 04:19:21;;;;;;;21.05;4.43;;;6.90;99.90;;;;;;5053376;28;20445;-66
2023/12/20 04:21:46;;;;;;;19.65;5.90;;;6.90;99.90;;;;;;5049470;28;20270;-65
2023/12/20 04:24:12;;;;;;;25.23;6.75;;;6.90;99.90;;;;;;5054676;28;20036;-65
2023/12/20 04:26:37;;;;;;;27.75;6.20;;;6.90;99.90;;;;;;5057837;28;20103;-66
2023/12/20 04:29:03;;;;;;;31.30;7.40;;;6.90;99.90;;;;;;5043514;28;20055;-65
2023/12/20 04:31:28;;;;;;;30.05;7.75;;;6.90;99.90;;;;;;5053176;28;20037;-65
2023/12/20 04:33:54;;;;;;;41.75;7.97;;;6.80;99.90;;;;;;5051684;28;20029;-64
2023/12/20 04:36:19;;;;;;;46.88;7.63;;;6.80;99.90;;;;;;5051893;28;20075;-65
2023/12/20 04:38:45;;;;;;;26.92;7.93;;;6.80;99.90;;;;;;5047336;28;20059;-65
2023/12/20 04:41:10;;;;;;;31.65;7.40;;;6.80;99.90;;;;;;5046596;28;20021;-64
2023/12/20 04:43:36;;;;;;;25.90;6.82;;;6.80;99.90;;;;;;5048816;28;20514;-64
2023/12/20 04:46:01;;;;;;;25.10;6.28;;;6.80;99.90;;;;;;5048307;28;20021;-65
2023/12/20 04:48:27;;;;;;;39.47;7.82;;;6.70;99.90;;;;;;5049204;28;20036;-63
2023/12/20 04:50:53;;;;;;;29.40;6.93;;;6.80;99.90;;;;;;5052728;28;20028;-64
2023/12/20 04:53:18;;;;;;;35.33;7.50;;;6.70;99.90;;;;;;5051073;28;20111;-65
2023/12/20 04:55:44;;;;;;;42.10;7.80;;;6.70;99.90;;;;;;5054462;28;20044;-65
2023/12/20 04:58:09;;;;;;;28.48;7.68;;;6.70;99.90;;;;;;5049690;28;20017;-66
2023/12/20 05:00:35;;;;;;;26.35;6.35;;;6.70;99.90;;;;;;5046769;28;20103;-65
2023/12/20 05:03:00;;;;;;;27.42;6.30;;;6.70;99.90;;;;;;5055120;28;20021;-66
2023/12/20 05:05:26;;;;;;;29.92;7.78;;;6.70;99.90;;;;;;5048909;28;20100;-66
2023/12/20 05:07:52;;;;;;;23.33;5.68;;;6.70;99.90;;;;;;5047064;28;20556;-66
2023/12/20 05:10:18;;;;;;;35.90;8.38;;;6.70;99.90;;;;;;5052033;28;20033;-65
2023/12/20 05:12:43;;;;;;;20.15;6.45;;;6.60;99.90;;;;;;5047699;28;20025;-66
2023/12/20 05:15:09;;;;;;;25.92;5.93;;;6.60;99.90;;;;;;5042343;28;20029;-65
2023/12/20 05:17:34;;;;;;;27.08;6.20;;;6.50;99.90;;;;;;5050097;28;20556;-64
2023/12/20 05:20:00;;;;;;;22.67;5.78;;;6.50;99.90;;;;;;5045026;28;20025;-66
2023/12/20 05:22:27;;;;;;;31.63;7.65;;;6.50;99.90;;;;;;5050088;28;20028;-69
2023/12/20 05:24:52;;;;;;;35.15;8.93;;;6.50;99.90;;;;;;5053964;28;20082;-65
2023/12/20 05:27:18;;;;;;;32.05;7.53;;;6.50;99.90;;;;;;5045823;28;20045;-65
2023/12/20 05:29:43;;;;;;;28.75;7.28;;;6.60;99.90;;;;;;5044792;28;20033;-65
2023/12/20 05:32:09;;;;;;;25.05;7.70;;;6.50;99.90;;;;;;5046569;28;20375;-64
2023/12/20 05:34:35;;;;;;;44.67;8.35;;;6.50;99.90;;;;;;5054105;28;20048;-65
2023/12/20 05:37:01;;;;;;;25.55;7.97;;;6.70;99.90;;;;;;5047578;28;20108;-65
2023/12/20 05:39:27;;;;;;;43.85;8.25;;;6.60;99.90;;;;;;5047959;28;20020;-66
2023/12/20 05:41:52;;;;;;;31.25;7.75;;;6.60;99.90;;;;;;5045367;28;20537;-64
2023/12/20 05:44:18;;;;;;;29.48;8.10;;;6.50;99.90;;;;;;5044921;28;20021;-64
2023/12/20 05:46:44;;;;;;;25.73;6.95;;;6.50;99.90;;;;;;5048122;28;20021;-64
2023/12/20 05:49:10;;;;;;;27.75;7.05;;;6.60;99.90;;;;;;5051137;28;20532;-64
2023/12/20 05:51:36;;;;;;;26.85;6.50;;;6.60;99.90;;;;;;5050789;28;20025;-63
2023/12/20 05:54:01;;;;;;;28.92;7.07;;;6.60;99.90;;;;;;5049391;28;20017;-63
2023/12/20 05:56:27;;;;;;;27.42;7.40;;;6.60;99.90;;;;;;5051929;28;20056;-64
2023/12/20 05:58:52;;;;;;;28.35;7.13;;;6.60;99.90;;;;;;5050625;28;20021;-63
2023/12/20 06:01:18;;;;;;;20.60;6.13;;;6.60;99.90;;;;;;5048715;28;20020;-66
2023/12/20 06:03:44;;;;;;;26.52;6.97;;;6.70;99.90;;;;;;5051370;28;20037;-63
2023/12/20 06:06:09;;;;;;;34.70;7.95;;;6.70;99.90;;;;;;5048727;28;20023;-65
2023/12/20 06:08:36;;;;;;;37.75;7.03;;;6.60;99.90;;;;;;5050444;28;20032;-66
2023/12/20 06:11:01;;;;;;;29.25;7.60;;;6.70;99.90;;;;;;5045850;28;20029;-65
2023/12/20 06:13:27;;;;;;;26.33;7.32;;;6.70;99.90;;;;;;5050028;28;20027;-69
2023/12/20 06:15:55;;;;;;;34.75;8.13;;;6.70;99.90;;;;;;5046199;28;20036;-64
2023/12/20 06:18:20;;;;;;;38.92;8.55;;;6.70;99.90;;;;;;5051527;28;20489;-65
2023/12/20 06:20:46;;;;;;;44.42;8.43;;;6.70;99.90;;;;;;5050442;28;20025;-65
2023/12/20 06:23:11;;;;;;;23.08;7.60;;;6.70;99.90;;;;;;5048620;28;20455;-64
2023/12/20 06:25:37;;;;;;;41.80;8.85;;;6.70;99.90;;;;;;5051600;28;20016;-64
2023/12/20 06:28:03;;;;;;;28.55;6.45;;;6.70;99.90;;;;;;5050406;28;20084;-66
2023/12/20 06:30:28;;;;;;;35.97;7.78;;;6.80;99.90;;;;;;5041619;28;20059;-65
2023/12/20 06:32:54;;;;;;;31.58;6.45;;;6.80;99.90;;;;;;5049303;28;20029;-65
2023/12/20 06:35:20;;;;;;;27.27;6.03;;;6.80;99.90;;;;;;5051606;28;20041;-65
2023/12/20 06:37:46;;;;;;;27.65;5.25;;;6.80;99.90;;;;;;5049589;28;20030;-63
2023/12/20 06:40:11;;;;;;;19.85;5.40;;;6.80;99.90;;;;;;5056141;28;20092;-63
2023/12/20 06:42:37;;;;;;;30.13;6.43;;;6.80;99.90;;;;;;5059304;28;20483;-65
2023/12/20 06:45:03;;;;;;;31.40;7.35;;;6.80;99.90;;;;;;5052526;28;20025;-65
2023/12/20 06:47:29;;;;;;;36.20;7.20;;;6.80;99.90;;;;;;5050587;28;20032;-65
2023/12/20 06:49:54;;;;;;;38.85;7.68;;;6.90;99.90;;;;;;5049558;28;20029;-65
2023/12/20 06:52:20;;;;;;;25.30;6.47;;;6.90;99.90;;;;;;5069685;28;20048;-64
2023/12/20 06:54:45;;;;;;;30.23;5.53;;;6.80;99.90;;;;;;5058021;28;20024;-65
2023/12/20 06:57:11;;;;;;;39.92;6.65;;;6.80;99.90;;;;;;5058023;28;20033;-65
2023/12/20 06:59:40;;;;;;;21.27;5.78;;;6.90;99.90;;;;;;5047560;28;20053;-63
2023/12/20 07:02:06;;;;;;;33.38;5.18;;;6.90;99.90;;;;;;5049118;28;20052;-64
2023/12/20 07:04:32;;;;;;;27.08;5.00;;;6.90;99.90;;;;;;5054346;28;20051;-63
2023/12/20 07:07:00;;;;;;;28.63;4.63;;;6.90;99.90;;;;;;5050333;28;20025;-65
2023/12/20 07:09:26;;;;;;;36.97;7.05;;;6.90;99.90;;;;;;5049437;28;20023;-63
2023/12/20 07:11:51;;;;;;;28.63;4.68;;;7.00;99.90;;;;;;5054788;28;20103;-64
2023/12/20 07:14:17;;;;;;;30.63;7.13;;;6.90;99.90;;;;;;5048377;28;20117;-63
2023/12/20 07:16:42;;;;;;;24.95;5.97;;;6.90;99.90;;;;;;5053763;28;20022;-65
2023/12/20 07:19:08;;;;;;;25.92;5.38;;;6.90;99.90;;;;;;5060295;28;20366;-64
2023/12/20 07:21:33;;;;;;;25.50;4.95;;;7.00;99.90;;;;;;5053218;28;20463;-62
2023/12/20 07:23:59;;;;;;;26.38;6.45;;;7.00;99.90;;;;;;5054902;28;20021;-65
2023/12/20 07:26:25;;;;;;;33.38;6.70;;;6.90;99.90;;;;;;5052540;28;20028;-63
2023/12/20 07:28:50;;;;;;;31.27;6.10;;;7.00;99.90;;;;;;5052887;28;20017;-63
2023/12/20 07:31:16;;;;;;;27.92;4.85;;;7.00;99.90;;;;;;5053056;28;20061;-65
2023/12/20 07:33:42;;;;;;;37.03;6.30;;;7.00;99.90;;;;;;5056888;28;20017;-64
2023/12/20 07:36:07;;;;;;;20.40;5.70;;;7.00;99.90;;;;;;5052778;28;20021;-66
2023/12/20 07:38:33;;;;;;;27.73;6.18;;;7.00;99.90;;;;;;5059159;28;20185;-63
2023/12/20 07:40:59;;;;;;;34.38;6.53;;;7.00;99.90;;;;;;5047083;28;20043;-64
2023/12/20 07:43:24;;;;;;;18.42;4.95;;;7.10;99.90;;;;;;5059214;28;20032;-64
2023/12/20 07:45:50;;;;;;;37.38;6.25;;;7.10;99.90;;;;;;5052508;28;20030;-64
2023/12/20 07:48:15;;;;;;;30.27;4.97;;;7.10;99.90;;;;;;5062095;28;20398;-63
2023/12/20 07:50:42;;;;;;;26.77;5.38;;;7.10;99.90;;;;;;5049536;28;20052;-64
2023/12/20 07:53:08;;;;;;;29.08;5.68;;;7.10;99.90;;;;;;5058516;28;20017;-65
2023/12/20 07:55:34;;;;;;;15.25;5.10;;;7.10;99.90;;;;;;5051579;28;20024;-63
2023/12/20 07:58:00;;;;;;;29.67;6.03;;;7.10;99.90;;;;;;5061208;28;20025;-65
2023/12/20 08:00:25;;;;;;;23.95;5.10;;;7.10;99.90;;;;;;5053065;28;20470;-64
2023/12/20 08:02:51;;;;;;;26.00;5.70;;;7.10;99.90;;;;;;5058435;28;20017;-65
2023/12/20 08:05:16;;;;;;;27.67;5.53;;;7.10;99.90;;;;;;5049064;28;20048;-65
2023/12/20 08:07:42;;;;;;;21.67;5.28;;;7.10;99.90;;;;;;5046790;28;20083;-63
2023/12/20 08:10:08;;;;;;;33.63;5.85;;;7.10;99.90;;;;;;5048427;28;20023;-65
2023/12/20 08:12:34;;;;;;;31.10;5.00;;;7.10;99.90;;;;;;5043669;28;20037;-65
2023/12/20 08:14:59;;;;;;;29.13;5.70;;;7.10;99.90;;;;;;5049042;28;20025;-64
2023/12/20 08:17:25;;;;;;;14.40;5.07;;;7.10;99.90;;;;;;5048251;28;20025;-62
2023/12/20 08:19:51;;;;;;;27.08;5.35;;;7.10;99.90;;;;;;5045607;28;20108;-64
2023/12/20 08:22:16;;;;;;;34.90;5.80;;;7.10;99.90;;;;;;5048415;28;20028;-63
2023/12/20 08:24:42;;;;;;;26.38;5.75;;;7.00;99.90;;;;;;5048368;28;20021;-62
2023/12/20 08:27:09;;;;;;;33.08;6.72;;;7.00;99.90;;;;;;5049433;28;20048;-62
2023/12/20 08:29:34;;;;;;;23.98;5.50;;;7.00;99.90;;;;;;5044067;28;20028;-64
2023/12/20 08:32:00;;;;;;;23.13;4.47;;;7.00;99.90;;;;;;5052866;28;20167;-63
2023/12/20 08:34:26;;;;;;;26.35;4.30;;;7.00;99.90;;;;;;5054743;28;20020;-64
2023/12/20 08:36:51;;;;;;;26.77;5.20;;;7.00;99.90;;;;;;5051559;28;20027;-64
2023/12/20 08:39:17;;;;;;;27.05;5.28;;;7.00;99.90;;;;;;5047909;28;20115;-63
2023/12/20 08:41:43;;;;;;;25.90;4.45;;;7.00;99.90;;;;;;5048934;28;20654;-63
2023/12/20 08:44:09;;;;;;;21.30;4.72;;;7.10;99.90;;;;;;5044349;28;20096;-64
2023/12/20 08:46:35;;;;;;;17.40;4.75;;;7.10;99.90;;;;;;5048696;28;20115;-64
2023/12/20 08:49:01;;;;;;;12.50;4.15;;;7.10;99.90;;;;;;5040033;28;20428;-63
2023/12/20 08:51:27;;;;;;;21.55;4.85;;;7.10;99.90;;;;;;5046842;28;20074;-65
2023/12/20 08:53:53;;;;;;;24.55;4.45;;;7.10;99.90;;;;;;5051851;28;20017;-64
2023/12/20 08:56:19;;;;;;;20.40;4.05;;;7.10;99.90;;;;;;5048294;28;20043;-66
2023/12/20 08:58:47;;;;;;;22.42;4.30;;;7.20;99.90;;;;;;5052386;28;20029;-65
2023/12/20 09:01:14;;;;;;;17.10;4.55;;;7.20;99.90;;;;;;5054509;28;20043;-63
2023/12/20 09:03:40;;;;;;;23.45;4.40;;;7.20;99.90;;;;;;5058382;28;20478;-63
2023/12/20 09:06:06;;;;;;;14.43;3.53;;;7.30;99.90;;;;;;5046600;28;20067;-64
2023/12/20 09:08:31;;;;;;;19.83;4.13;;;7.30;99.90;;;;;;5052424;28;20056;-64
2023/12/20 09:10:57;;;;;;;21.77;4.25;;;7.30;99.90;;;;;;5044995;28;20032;-64
2023/12/20 09:13:27;;;;;;;25.77;5.20;;;7.30;99.90;;;;;;5055408;28;20561;-63
2023/12/20 09:15:54;;;;;;;28.52;5.53;;;7.30;99.90;;;;;;5047142;28;20109;-65
2023/12/20 09:18:20;;;;;;;36.47;6.53;;;7.40;99.90;;;;;;5057406;28;20009;-64
2023/12/20 09:20:45;;;;;;;16.60;4.55;;;7.40;99.90;;;;;;5043015;28;20037;-64
2023/12/20 09:23:11;;;;;;;22.38;4.18;;;7.40;99.90;;;;;;5059487;28;20375;-62
2023/12/20 09:25:37;;;;;;;15.68;3.10;;;7.40;99.90;;;;;;5046840;28;20025;-63
2023/12/20 09:28:02;;;;;;;19.58;3.75;;;7.30;99.90;;;;;;5046178;28;20040;-63
2023/12/20 09:30:29;;;;;;;31.88;3.53;;;7.30;99.90;;;;;;5046340;28;20038;-64
2023/12/20 09:32:55;;;;;;;21.17;4.40;;;7.40;99.90;;;;;;5053362;28;20020;-65
2023/12/20 09:35:20;;;;;;;25.77;5.35;;;7.40;99.90;;;;;;5042886;28;20066;-65
2023/12/20 09:37:46;;;;;;;38.25;4.80;;;7.40;99.90;;;;;;5054880;28;20025;-64
2023/12/20 09:40:13;;;;;;;21.85;3.33;;;7.40;99.90;;;;;;5038145;28;20085;-64
2023/12/20 09:42:56;;;;;;;26.52;3.95;;;7.40;99.90;;;;;;5048053;28;20033;-64
2023/12/20 09:45:22;;;;;;;23.63;3.97;;;7.40;99.90;;;;;;5044934;28;20383;-64
2023/12/20 09:47:55;;;;;;;22.13;4.07;;;7.40;99.90;;;;;;5051297;28;20029;-65
2023/12/20 09:50:21;;;;;;;23.27;4.30;;;7.40;99.90;;;;;;5045357;28;20045;-65
2023/12/20 09:52:52;;;;;;;13.60;3.63;;;7.40;99.90;;;;;;5051437;28;20029;-64
2023/12/20 09:55:19;;;;;;;17.77;4.05;;;7.40;99.90;;;;;;5050348;28;20037;-66
2023/12/20 09:57:45;;;;;;;26.63;4.72;;;7.50;99.90;;;;;;5043869;28;20563;-63
2023/12/20 10:00:11;;;;;;;24.02;3.80;;;7.50;99.90;;;;;;5051110;28;20035;-63
2023/12/20 10:02:40;;;;;;;18.33;3.88;;;7.50;99.90;;;;;;5046873;28;20022;-63
2023/12/20 10:05:08;;;;;;;25.75;4.22;;;7.50;99.90;;;;;;5051429;28;20032;-64
2023/12/20 10:07:35;;;;;;;22.40;3.60;;;7.50;99.90;;;;;;5044366;28;20598;-66
2023/12/20 10:10:02;;;;;;;21.77;3.83;;;7.50;99.90;;;;;;5050617;28;20118;-65
2023/12/20 10:12:28;;;;;;;27.25;4.57;;;7.50;99.90;;;;;;5047552;28;20098;-64
2023/12/20 10:14:53;;;;;;;25.45;3.60;;;7.50;99.90;;;;;;5054612;28;20029;-63
2023/12/20 10:17:21;;;;;;;15.32;3.78;;;7.60;99.90;;;;;;5043210;28;20092;-65
2023/12/20 10:19:46;;;;;;;17.63;3.50;;;7.60;99.90;;;;;;5068036;28;20022;-64
2023/12/20 10:22:12;;;;;;;24.25;2.90;;;7.60;99.90;;;;;;5042205;28;20617;-64
2023/12/20 10:24:37;;;;;;;18.85;4.30;;;7.60;99.90;;;;;;5051266;28;20477;-64
2023/12/20 10:27:07;;;;;;;27.88;3.78;;;7.60;99.90;;;;;;5042071;28;20029;-65
2023/12/20 10:29:35;;;;;;;11.00;3.30;;;7.60;99.90;;;;;;5052794;28;20115;-65
2023/12/20 10:32:23;;;;;;;19.70;3.55;;;7.60;99.90;;;;;;5039618;28;20017;-63
2023/12/20 10:34:49;;;;;;;21.48;3.83;;;7.70;99.90;;;;;;5051144;28;20017;-63
2023/12/20 10:37:14;;;;;;;26.10;4.70;;;7.70;99.90;;;;;;5045480;28;20019;-64
2023/12/20 10:39:42;;;;;;;24.15;4.13;;;7.70;99.90;;;;;;5052239;28;20526;-64
2023/12/20 10:42:11;;;;;;;25.25;4.65;;;7.70;99.90;;;;;;5044618;28;20017;-66
2023/12/20 10:44:36;;;;;;;19.58;4.40;;;7.70;99.90;;;;;;5051770;28;20028;-64
2023/12/20 10:47:03;;;;;;;25.40;3.92;;;7.80;99.90;;;;;;5064250;28;20377;-64
2023/12/20 10:49:30;;;;;;;12.57;2.83;;;7.80;99.90;;;;;;5047855;28;20020;-62
2023/12/20 10:51:59;;;;;;;21.10;3.58;;;7.80;99.90;;;;;;5040543;28;20028;-62
2023/12/20 10:54:25;;;;;;;33.22;4.13;;;7.70;99.90;;;;;;5051050;28;20034;-65
2023/12/20 10:56:52;;;;;;;20.70;3.28;;;7.80;99.90;;;;;;5042702;28;20025;-64
2023/12/20 10:59:21;;;;;;;28.38;4.82;;;7.80;99.90;;;;;;5048330;28;20467;-63
2023/12/20 11:01:49;;;;;;;23.35;4.18;;;7.80;99.90;;;;;;5051865;28;20024;-63
2023/12/20 11:04:23;;;;;;;19.27;3.38;;;7.80;99.90;;;;;;5048552;28;20025;-62
2023/12/20 11:06:54;;;;;;;20.17;3.70;;;7.80;99.90;;;;;;5052111;28;20029;-62
2023/12/20 11:09:27;;;;;;;30.70;4.05;;;7.80;99.90;;;;;;5047695;28;20013;-64
2023/12/20 11:12:13;;;;;;;18.02;3.13;;;7.80;99.90;;;;;;5048087;28;20096;-63
2023/12/20 11:15:04;;;;;;;26.20;3.70;;;7.90;99.90;;;;;;5041503;28;20476;-63
2023/12/20 11:17:31;;;;;;;19.45;3.15;;;7.90;99.90;;;;;;5049375;28;20066;-64
2023/12/20 11:19:56;;;;;;;32.90;3.70;;;7.90;99.90;;;;;;5046792;28;20414;-63
2023/12/20 11:22:24;;;;;;;22.83;3.70;;;7.90;99.90;;;;;;5052566;28;20073;-63
2023/12/20 11:24:51;;;;;;;15.98;3.85;;;7.90;99.90;;;;;;5043134;28;20029;-64
2023/12/20 11:27:18;;;;;;;17.75;3.60;;;7.90;99.90;;;;;;5053017;28;20030;-65
2023/12/20 11:29:52;;;;;;;27.25;4.22;;;8.00;99.90;;;;;;5050946;28;20033;-63
2023/12/20 11:32:29;;;;;;;15.82;3.08;;;8.00;99.90;;;;;;5052014;28;20037;-64
2023/12/20 11:35:08;;;;;;;29.33;4.70;;;7.90;99.90;;;;;;5050323;28;20033;-64
2023/12/20 11:37:37;;;;;;;31.50;5.13;;;8.00;99.90;;;;;;5046547;28;20035;-64
2023/12/20 11:40:07;;;;;;;17.60;2.88;;;7.90;99.90;;;;;;5051272;28;20053;-64
2023/12/20 11:42:34;;;;;;;14.25;3.05;;;7.90;99.90;;;;;;5043739;28;20507;-64
2023/12/20 11:45:03;;;;;;;21.38;3.30;;;8.00;99.90;;;;;;5049156;28;20043;-64
2023/12/20 11:47:29;;;;;;;25.65;4.35;;;8.00;99.90;;;;;;5044775;28;20086;-63
2023/12/20 11:49:56;;;;;;;28.20;3.65;;;8.10;99.90;;;;;;5050468;28;20516;-63
2023/12/20 11:52:21;;;;;;;24.95;3.17;;;8.10;99.90;;;;;;5046959;28;20052;-62
2023/12/20 11:54:47;;;;;;;17.25;3.63;;;8.10;99.90;;;;;;5058392;28;20551;-64
2023/12/20 11:57:13;;;;;;;21.25;3.30;;;8.00;99.90;;;;;;5046607;28;20142;-62
2023/12/20 11:59:39;;;;;;;12.25;2.83;;;8.00;99.90;;;;;;5047709;28;20095;-64
2023/12/20 12:02:05;;;;;;;23.05;3.47;;;8.00;99.90;;;;;;5049416;28;20454;-64
2023/12/20 12:04:31;;;;;;;23.10;3.20;;;8.10;99.90;;;;;;5054087;28;20020;-64
2023/12/20 12:06:56;;;;;;;20.25;3.63;;;8.00;99.90;;;;;;5036237;28;20022;-64
2023/12/20 12:09:21;;;;;;;14.30;3.00;;;8.00;99.90;;;;;;5048815;28;20027;-64
2023/12/20 12:11:47;;;;;;;18.08;4.03;;;8.00;99.90;;;;;;5038803;28;20034;-65
2023/12/20 12:14:14;;;;;;;13.63;3.38;;;8.00;99.90;;;;;;5048758;28;20028;-64
2023/12/20 12:16:42;;;;;;;18.55;3.42;;;8.00;99.90;;;;;;5044478;28;20020;-65
2023/12/20 12:19:07;;;;;;;17.08;3.78;;;8.00;99.90;;;;;;5051755;28;20079;-64
2023/12/20 12:21:33;;;;;;;18.73;3.58;;;8.00;99.90;;;;;;5048475;28;20111;-64
2023/12/20 12:24:09;;;;;;;17.42;3.40;;;8.00;99.90;;;;;;5040049;28;20017;-64
2023/12/20 12:26:35;;;;;;;26.05;3.65;;;8.00;99.90;;;;;;5041298;28;20386;-66
2023/12/20 12:29:01;;;;;;;17.33;3.08;;;8.00;99.90;;;;;;5048210;28;20032;-66
2023/12/20 12:31:26;;;;;;;17.58;3.50;;;8.00;99.90;;;;;;5047109;28;20021;-66
2023/12/20 12:33:52;;;;;;;28.15;5.10;;;8.00;99.90;;;;;;5049761;28;20028;-64
2023/12/20 12:36:18;;;;;;;17.08;3.20;;;8.00;99.90;;;;;;5049631;28;20040;-65
2023/12/20 12:38:44;;;;;;;20.08;4.00;;;8.10;99.90;;;;;;5046879;28;20025;-65
2023/12/20 12:41:12;;;;;;;27.30;4.55;;;8.10;99.90;;;;;;5045815;28;20021;-65